sensor_id;sensor_type;location;lat;lon;timestamp;P1;durP1;ratioP1;P2;durP2;ratioP2
5285;SDS011;2665;53.112;7.358;2024-03-06T00:00:55;5.40;;;3.43;;
5285;SDS011;2665;53.112;7.358;2024-03-06T00:03:20;4.67;;;3.10;;
5285;SDS011;2665;53.112;7.358;2024-03-06T00:05:47;7.77;;;3.50;;
5285;SDS011;2665;53.112;7.358;2024-03-06T00:08:13;6.43;;;2.97;;
5285;SDS011;2665;53.112;7.358;2024-03-06T00:10:40;7.00;;;3.73;;
5285;SDS011;2665;53.112;7.358;2024-03-06T00:13:06;7.50;;;4.00;;
5285;SDS011;2665;53.112;7.358;2024-03-06T00:15:31;4.10;;;3.20;;
5285;SDS011;2665;53.112;7.358;2024-03-06T00:17:57;6.17;;;4.03;;
5285;SDS011;2665;53.112;7.358;2024-03-06T00:20:23;5.47;;;3.80;;
5285;SDS011;2665;53.112;7.358;2024-03-06T00:22:49;5.03;;;3.80;;
5285;SDS011;2665;53.112;7.358;2024-03-06T00:25:15;7.30;;;3.90;;
5285;SDS011;2665;53.112;7.358;2024-03-06T00:27:40;5.53;;;3.50;;
5285;SDS011;2665;53.112;7.358;2024-03-06T00:30:06;4.47;;;2.97;;
5285;SDS011;2665;53.112;7.358;2024-03-06T00:32:32;12.93;;;4.00;;
5285;SDS011;2665;53.112;7.358;2024-03-06T00:34:58;7.10;;;3.80;;
5285;SDS011;2665;53.112;7.358;2024-03-06T00:37:23;5.23;;;3.30;;
5285;SDS011;2665;53.112;7.358;2024-03-06T00:39:49;5.50;;;3.73;;
5285;SDS011;2665;53.112;7.358;2024-03-06T00:42:15;8.87;;;3.30;;
5285;SDS011;2665;53.112;7.358;2024-03-06T00:44:41;5.67;;;3.83;;
5285;SDS011;2665;53.112;7.358;2024-03-06T00:47:06;6.50;;;3.70;;
5285;SDS011;2665;53.112;7.358;2024-03-06T00:49:32;6.27;;;3.37;;
5285;SDS011;2665;53.112;7.358;2024-03-06T00:51:58;5.03;;;3.50;;
5285;SDS011;2665;53.112;7.358;2024-03-06T00:54:23;5.10;;;3.30;;
5285;SDS011;2665;53.112;7.358;2024-03-06T00:56:49;6.87;;;3.77;;
5285;SDS011;2665;53.112;7.358;2024-03-06T00:59:15;9.73;;;4.60;;
5285;SDS011;2665;53.112;7.358;2024-03-06T01:01:40;8.87;;;4.73;;
5285;SDS011;2665;53.112;7.358;2024-03-06T01:04:06;9.23;;;4.47;;
5285;SDS011;2665;53.112;7.358;2024-03-06T01:06:32;8.70;;;3.57;;
5285;SDS011;2665;53.112;7.358;2024-03-06T01:08:58;6.40;;;3.37;;
5285;SDS011;2665;53.112;7.358;2024-03-06T01:11:24;5.07;;;3.33;;
5285;SDS011;2665;53.112;7.358;2024-03-06T01:13:51;7.43;;;4.00;;
5285;SDS011;2665;53.112;7.358;2024-03-06T01:16:17;6.43;;;3.70;;
5285;SDS011;2665;53.112;7.358;2024-03-06T01:18:43;6.03;;;3.47;;
5285;SDS011;2665;53.112;7.358;2024-03-06T01:21:09;10.53;;;3.73;;
5285;SDS011;2665;53.112;7.358;2024-03-06T01:23:35;6.33;;;4.07;;
5285;SDS011;2665;53.112;7.358;2024-03-06T01:26:00;10.53;;;3.90;;
5285;SDS011;2665;53.112;7.358;2024-03-06T01:28:26;7.73;;;3.90;;
5285;SDS011;2665;53.112;7.358;2024-03-06T01:30:52;5.50;;;3.30;;
5285;SDS011;2665;53.112;7.358;2024-03-06T01:33:17;7.57;;;4.83;;
5285;SDS011;2665;53.112;7.358;2024-03-06T01:35:43;5.70;;;3.77;;
5285;SDS011;2665;53.112;7.358;2024-03-06T01:38:09;9.77;;;3.97;;
5285;SDS011;2665;53.112;7.358;2024-03-06T01:40:35;6.60;;;4.00;;
5285;SDS011;2665;53.112;7.358;2024-03-06T01:43:01;6.60;;;3.50;;
5285;SDS011;2665;53.112;7.358;2024-03-06T01:45:26;5.30;;;3.60;;
5285;SDS011;2665;53.112;7.358;2024-03-06T01:47:52;8.20;;;4.30;;
5285;SDS011;2665;53.112;7.358;2024-03-06T01:50:18;9.03;;;4.10;;
5285;SDS011;2665;53.112;7.358;2024-03-06T01:52:44;5.60;;;3.40;;
5285;SDS011;2665;53.112;7.358;2024-03-06T01:55:11;6.73;;;3.90;;
5285;SDS011;2665;53.112;7.358;2024-03-06T01:57:38;7.10;;;4.47;;
5285;SDS011;2665;53.112;7.358;2024-03-06T02:00:05;8.90;;;3.80;;
5285;SDS011;2665;53.112;7.358;2024-03-06T02:02:38;6.43;;;3.13;;
5285;SDS011;2665;53.112;7.358;2024-03-06T02:05:05;7.33;;;4.57;;
5285;SDS011;2665;53.112;7.358;2024-03-06T02:07:31;6.57;;;4.53;;
5285;SDS011;2665;53.112;7.358;2024-03-06T02:09:58;7.40;;;4.23;;
5285;SDS011;2665;53.112;7.358;2024-03-06T02:12:24;6.20;;;4.03;;
5285;SDS011;2665;53.112;7.358;2024-03-06T02:14:50;6.97;;;3.47;;
5285;SDS011;2665;53.112;7.358;2024-03-06T02:17:15;9.63;;;4.13;;
5285;SDS011;2665;53.112;7.358;2024-03-06T02:19:42;8.00;;;4.00;;
5285;SDS011;2665;53.112;7.358;2024-03-06T02:22:09;8.60;;;4.37;;
5285;SDS011;2665;53.112;7.358;2024-03-06T02:24:35;5.57;;;3.90;;
5285;SDS011;2665;53.112;7.358;2024-03-06T02:27:02;5.77;;;3.90;;
5285;SDS011;2665;53.112;7.358;2024-03-06T02:29:30;6.50;;;3.30;;
5285;SDS011;2665;53.112;7.358;2024-03-06T02:31:58;6.60;;;4.67;;
5285;SDS011;2665;53.112;7.358;2024-03-06T02:34:23;5.13;;;3.60;;
5285;SDS011;2665;53.112;7.358;2024-03-06T02:36:50;5.60;;;3.90;;
5285;SDS011;2665;53.112;7.358;2024-03-06T02:39:17;9.37;;;4.70;;
5285;SDS011;2665;53.112;7.358;2024-03-06T02:41:42;9.37;;;4.97;;
5285;SDS011;2665;53.112;7.358;2024-03-06T02:44:08;9.80;;;4.50;;
5285;SDS011;2665;53.112;7.358;2024-03-06T02:46:34;6.80;;;4.23;;
5285;SDS011;2665;53.112;7.358;2024-03-06T02:49:00;9.40;;;4.83;;
5285;SDS011;2665;53.112;7.358;2024-03-06T02:51:26;9.63;;;4.30;;
5285;SDS011;2665;53.112;7.358;2024-03-06T02:53:51;6.57;;;4.53;;
5285;SDS011;2665;53.112;7.358;2024-03-06T02:56:18;5.80;;;3.63;;
5285;SDS011;2665;53.112;7.358;2024-03-06T02:58:45;7.00;;;4.30;;
5285;SDS011;2665;53.112;7.358;2024-03-06T03:01:11;5.93;;;3.80;;
5285;SDS011;2665;53.112;7.358;2024-03-06T03:03:40;7.80;;;4.13;;
5285;SDS011;2665;53.112;7.358;2024-03-06T03:06:06;9.17;;;4.40;;
5285;SDS011;2665;53.112;7.358;2024-03-06T03:08:32;6.07;;;4.03;;
5285;SDS011;2665;53.112;7.358;2024-03-06T03:10:58;6.13;;;4.07;;
5285;SDS011;2665;53.112;7.358;2024-03-06T03:13:24;7.90;;;4.80;;
5285;SDS011;2665;53.112;7.358;2024-03-06T03:15:49;6.43;;;4.17;;
5285;SDS011;2665;53.112;7.358;2024-03-06T03:18:16;6.60;;;4.37;;
5285;SDS011;2665;53.112;7.358;2024-03-06T03:20:42;6.77;;;4.20;;
5285;SDS011;2665;53.112;7.358;2024-03-06T03:23:07;8.07;;;4.33;;
5285;SDS011;2665;53.112;7.358;2024-03-06T03:25:37;10.27;;;4.90;;
5285;SDS011;2665;53.112;7.358;2024-03-06T03:28:03;9.67;;;3.90;;
5285;SDS011;2665;53.112;7.358;2024-03-06T03:30:28;9.90;;;4.30;;
5285;SDS011;2665;53.112;7.358;2024-03-06T03:32:54;7.07;;;4.30;;
5285;SDS011;2665;53.112;7.358;2024-03-06T03:35:20;6.93;;;4.03;;
5285;SDS011;2665;53.112;7.358;2024-03-06T03:37:50;7.87;;;4.73;;
5285;SDS011;2665;53.112;7.358;2024-03-06T03:40:18;8.77;;;5.27;;
5285;SDS011;2665;53.112;7.358;2024-03-06T03:42:44;7.17;;;3.50;;
5285;SDS011;2665;53.112;7.358;2024-03-06T03:45:10;8.67;;;4.20;;
5285;SDS011;2665;53.112;7.358;2024-03-06T03:47:36;5.80;;;4.00;;
5285;SDS011;2665;53.112;7.358;2024-03-06T03:50:02;6.33;;;4.27;;
5285;SDS011;2665;53.112;7.358;2024-03-06T03:52:29;10.00;;;4.80;;
5285;SDS011;2665;53.112;7.358;2024-03-06T03:54:55;13.70;;;5.60;;
5285;SDS011;2665;53.112;7.358;2024-03-06T03:57:20;7.97;;;4.40;;
5285;SDS011;2665;53.112;7.358;2024-03-06T03:59:46;6.63;;;3.90;;
5285;SDS011;2665;53.112;7.358;2024-03-06T04:02:12;5.80;;;4.00;;
5285;SDS011;2665;53.112;7.358;2024-03-06T04:04:37;8.67;;;4.53;;
5285;SDS011;2665;53.112;7.358;2024-03-06T04:07:03;9.50;;;5.17;;
5285;SDS011;2665;53.112;7.358;2024-03-06T04:09:30;7.60;;;4.37;;
5285;SDS011;2665;53.112;7.358;2024-03-06T04:11:57;8.10;;;4.60;;
5285;SDS011;2665;53.112;7.358;2024-03-06T04:14:23;6.47;;;4.50;;
5285;SDS011;2665;53.112;7.358;2024-03-06T04:16:49;8.60;;;4.10;;
5285;SDS011;2665;53.112;7.358;2024-03-06T04:19:15;7.77;;;4.83;;
5285;SDS011;2665;53.112;7.358;2024-03-06T04:21:44;6.00;;;4.10;;
5285;SDS011;2665;53.112;7.358;2024-03-06T04:24:09;7.20;;;4.43;;
5285;SDS011;2665;53.112;7.358;2024-03-06T04:26:35;7.07;;;4.43;;
5285;SDS011;2665;53.112;7.358;2024-03-06T04:29:01;8.10;;;5.13;;
5285;SDS011;2665;53.112;7.358;2024-03-06T04:31:28;6.83;;;4.33;;
5285;SDS011;2665;53.112;7.358;2024-03-06T04:33:53;7.80;;;5.53;;
5285;SDS011;2665;53.112;7.358;2024-03-06T04:36:19;6.70;;;4.40;;
5285;SDS011;2665;53.112;7.358;2024-03-06T04:38:45;9.40;;;4.70;;
5285;SDS011;2665;53.112;7.358;2024-03-06T04:41:11;9.83;;;6.30;;
5285;SDS011;2665;53.112;7.358;2024-03-06T04:43:36;10.20;;;6.17;;
5285;SDS011;2665;53.112;7.358;2024-03-06T04:46:03;7.30;;;5.20;;
5285;SDS011;2665;53.112;7.358;2024-03-06T04:48:29;8.63;;;5.20;;
5285;SDS011;2665;53.112;7.358;2024-03-06T04:50:55;7.50;;;5.40;;
5285;SDS011;2665;53.112;7.358;2024-03-06T04:53:21;5.73;;;4.43;;
5285;SDS011;2665;53.112;7.358;2024-03-06T04:55:46;8.07;;;3.67;;
5285;SDS011;2665;53.112;7.358;2024-03-06T04:58:12;7.07;;;4.50;;
5285;SDS011;2665;53.112;7.358;2024-03-06T05:00:38;6.33;;;3.83;;
5285;SDS011;2665;53.112;7.358;2024-03-06T05:03:04;7.30;;;4.87;;
5285;SDS011;2665;53.112;7.358;2024-03-06T05:05:30;8.10;;;5.70;;
5285;SDS011;2665;53.112;7.358;2024-03-06T05:07:55;10.03;;;5.40;;
5285;SDS011;2665;53.112;7.358;2024-03-06T05:10:21;9.63;;;6.13;;
5285;SDS011;2665;53.112;7.358;2024-03-06T05:12:47;8.40;;;4.73;;
5285;SDS011;2665;53.112;7.358;2024-03-06T05:15:13;15.63;;;5.70;;
5285;SDS011;2665;53.112;7.358;2024-03-06T05:17:39;5.90;;;3.73;;
5285;SDS011;2665;53.112;7.358;2024-03-06T05:20:05;9.67;;;5.00;;
5285;SDS011;2665;53.112;7.358;2024-03-06T05:22:31;8.13;;;4.70;;
5285;SDS011;2665;53.112;7.358;2024-03-06T05:24:57;8.67;;;5.57;;
5285;SDS011;2665;53.112;7.358;2024-03-06T05:27:23;8.47;;;5.47;;
5285;SDS011;2665;53.112;7.358;2024-03-06T05:29:52;9.83;;;5.50;;
5285;SDS011;2665;53.112;7.358;2024-03-06T05:32:17;10.40;;;5.50;;
5285;SDS011;2665;53.112;7.358;2024-03-06T05:34:43;8.10;;;4.87;;
5285;SDS011;2665;53.112;7.358;2024-03-06T05:37:09;8.57;;;5.00;;
5285;SDS011;2665;53.112;7.358;2024-03-06T05:39:35;8.67;;;5.43;;
5285;SDS011;2665;53.112;7.358;2024-03-06T05:42:03;8.27;;;5.40;;
5285;SDS011;2665;53.112;7.358;2024-03-06T05:44:29;7.27;;;4.90;;
5285;SDS011;2665;53.112;7.358;2024-03-06T05:46:57;10.50;;;5.20;;
5285;SDS011;2665;53.112;7.358;2024-03-06T05:49:23;9.80;;;5.90;;
5285;SDS011;2665;53.112;7.358;2024-03-06T05:51:48;8.20;;;4.63;;
5285;SDS011;2665;53.112;7.358;2024-03-06T05:54:14;7.70;;;4.67;;
5285;SDS011;2665;53.112;7.358;2024-03-06T05:56:40;10.93;;;5.57;;
5285;SDS011;2665;53.112;7.358;2024-03-06T05:59:07;9.90;;;4.60;;
5285;SDS011;2665;53.112;7.358;2024-03-06T06:01:33;8.10;;;4.87;;
5285;SDS011;2665;53.112;7.358;2024-03-06T06:04:00;11.00;;;4.90;;
5285;SDS011;2665;53.112;7.358;2024-03-06T06:06:26;11.20;;;5.63;;
5285;SDS011;2665;53.112;7.358;2024-03-06T06:08:52;15.73;;;8.80;;
5285;SDS011;2665;53.112;7.358;2024-03-06T06:11:17;7.43;;;5.23;;
5285;SDS011;2665;53.112;7.358;2024-03-06T06:13:43;12.80;;;6.13;;
5285;SDS011;2665;53.112;7.358;2024-03-06T06:16:09;9.63;;;5.60;;
5285;SDS011;2665;53.112;7.358;2024-03-06T06:18:34;10.23;;;5.63;;
5285;SDS011;2665;53.112;7.358;2024-03-06T06:21:00;7.17;;;4.87;;
5285;SDS011;2665;53.112;7.358;2024-03-06T06:23:26;9.97;;;5.00;;
5285;SDS011;2665;53.112;7.358;2024-03-06T06:25:52;9.07;;;5.50;;
5285;SDS011;2665;53.112;7.358;2024-03-06T06:28:17;8.43;;;4.53;;
5285;SDS011;2665;53.112;7.358;2024-03-06T06:30:43;9.70;;;5.23;;
5285;SDS011;2665;53.112;7.358;2024-03-06T06:33:09;12.00;;;6.20;;
5285;SDS011;2665;53.112;7.358;2024-03-06T06:35:34;13.27;;;5.93;;
5285;SDS011;2665;53.112;7.358;2024-03-06T06:38:01;10.13;;;5.87;;
5285;SDS011;2665;53.112;7.358;2024-03-06T06:40:27;8.93;;;5.83;;
5285;SDS011;2665;53.112;7.358;2024-03-06T06:42:53;8.67;;;5.30;;
5285;SDS011;2665;53.112;7.358;2024-03-06T06:45:19;9.70;;;5.90;;
5285;SDS011;2665;53.112;7.358;2024-03-06T06:47:47;11.00;;;5.83;;
5285;SDS011;2665;53.112;7.358;2024-03-06T06:50:13;8.83;;;5.40;;
5285;SDS011;2665;53.112;7.358;2024-03-06T06:52:39;11.43;;;5.50;;
5285;SDS011;2665;53.112;7.358;2024-03-06T06:55:05;5.77;;;4.50;;
5285;SDS011;2665;53.112;7.358;2024-03-06T06:57:31;8.50;;;5.30;;
5285;SDS011;2665;53.112;7.358;2024-03-06T06:59:58;11.20;;;5.27;;
5285;SDS011;2665;53.112;7.358;2024-03-06T07:02:25;7.60;;;4.80;;
5285;SDS011;2665;53.112;7.358;2024-03-06T07:04:51;10.83;;;5.70;;
5285;SDS011;2665;53.112;7.358;2024-03-06T07:07:17;12.50;;;4.90;;
5285;SDS011;2665;53.112;7.358;2024-03-06T07:09:43;7.93;;;5.30;;
5285;SDS011;2665;53.112;7.358;2024-03-06T07:12:09;10.33;;;6.40;;
5285;SDS011;2665;53.112;7.358;2024-03-06T07:14:34;10.37;;;5.70;;
5285;SDS011;2665;53.112;7.358;2024-03-06T07:17:00;8.10;;;5.20;;
5285;SDS011;2665;53.112;7.358;2024-03-06T07:19:26;10.53;;;5.80;;
5285;SDS011;2665;53.112;7.358;2024-03-06T07:21:52;8.13;;;5.30;;
5285;SDS011;2665;53.112;7.358;2024-03-06T07:24:18;8.67;;;5.57;;
5285;SDS011;2665;53.112;7.358;2024-03-06T07:26:44;10.73;;;6.13;;
5285;SDS011;2665;53.112;7.358;2024-03-06T07:29:10;8.07;;;5.20;;
5285;SDS011;2665;53.112;7.358;2024-03-06T07:31:43;8.97;;;5.47;;
5285;SDS011;2665;53.112;7.358;2024-03-06T07:34:12;7.90;;;5.00;;
5285;SDS011;2665;53.112;7.358;2024-03-06T07:36:39;9.43;;;6.10;;
5285;SDS011;2665;53.112;7.358;2024-03-06T07:39:05;13.53;;;5.73;;
5285;SDS011;2665;53.112;7.358;2024-03-06T07:41:32;12.40;;;5.77;;
5285;SDS011;2665;53.112;7.358;2024-03-06T07:43:58;12.67;;;5.80;;
5285;SDS011;2665;53.112;7.358;2024-03-06T07:46:25;7.40;;;4.50;;
5285;SDS011;2665;53.112;7.358;2024-03-06T07:48:51;8.43;;;5.97;;
5285;SDS011;2665;53.112;7.358;2024-03-06T07:51:17;8.43;;;6.00;;
5285;SDS011;2665;53.112;7.358;2024-03-06T07:53:43;11.40;;;5.47;;
5285;SDS011;2665;53.112;7.358;2024-03-06T07:56:12;11.50;;;6.10;;
5285;SDS011;2665;53.112;7.358;2024-03-06T07:58:38;10.67;;;5.57;;
5285;SDS011;2665;53.112;7.358;2024-03-06T08:01:04;9.83;;;5.50;;
5285;SDS011;2665;53.112;7.358;2024-03-06T08:03:32;11.70;;;5.70;;
5285;SDS011;2665;53.112;7.358;2024-03-06T08:05:59;9.93;;;6.17;;
5285;SDS011;2665;53.112;7.358;2024-03-06T08:08:25;9.80;;;5.73;;
5285;SDS011;2665;53.112;7.358;2024-03-06T08:10:50;7.73;;;5.03;;
5285;SDS011;2665;53.112;7.358;2024-03-06T08:13:16;12.57;;;6.23;;
5285;SDS011;2665;53.112;7.358;2024-03-06T08:15:44;9.07;;;5.17;;
5285;SDS011;2665;53.112;7.358;2024-03-06T08:18:09;12.00;;;7.03;;
5285;SDS011;2665;53.112;7.358;2024-03-06T08:20:36;10.00;;;5.80;;
5285;SDS011;2665;53.112;7.358;2024-03-06T08:23:02;11.40;;;6.07;;
5285;SDS011;2665;53.112;7.358;2024-03-06T08:25:28;9.40;;;6.00;;
5285;SDS011;2665;53.112;7.358;2024-03-06T08:27:54;8.80;;;5.07;;
5285;SDS011;2665;53.112;7.358;2024-03-06T08:30:19;7.13;;;5.10;;
5285;SDS011;2665;53.112;7.358;2024-03-06T08:32:45;10.03;;;6.40;;
5285;SDS011;2665;53.112;7.358;2024-03-06T08:35:11;10.90;;;5.37;;
5285;SDS011;2665;53.112;7.358;2024-03-06T08:37:38;10.73;;;5.73;;
5285;SDS011;2665;53.112;7.358;2024-03-06T08:40:05;9.60;;;5.77;;
5285;SDS011;2665;53.112;7.358;2024-03-06T08:42:51;13.50;;;8.40;;
5285;SDS011;2665;53.112;7.358;2024-03-06T08:45:17;12.50;;;7.23;;
5285;SDS011;2665;53.112;7.358;2024-03-06T08:47:43;10.63;;;6.50;;
5285;SDS011;2665;53.112;7.358;2024-03-06T08:50:10;8.63;;;5.57;;
5285;SDS011;2665;53.112;7.358;2024-03-06T08:52:36;8.77;;;5.90;;
5285;SDS011;2665;53.112;7.358;2024-03-06T08:55:02;8.83;;;5.90;;
5285;SDS011;2665;53.112;7.358;2024-03-06T08:57:32;13.80;;;8.63;;
5285;SDS011;2665;53.112;7.358;2024-03-06T09:00:01;16.63;;;8.57;;
5285;SDS011;2665;53.112;7.358;2024-03-06T09:02:28;13.20;;;8.00;;
5285;SDS011;2665;53.112;7.358;2024-03-06T09:04:53;11.07;;;6.97;;
5285;SDS011;2665;53.112;7.358;2024-03-06T09:07:19;10.03;;;6.43;;
5285;SDS011;2665;53.112;7.358;2024-03-06T09:09:48;19.43;;;9.17;;
5285;SDS011;2665;53.112;7.358;2024-03-06T09:12:16;19.40;;;7.93;;
5285;SDS011;2665;53.112;7.358;2024-03-06T09:14:42;14.77;;;8.00;;
5285;SDS011;2665;53.112;7.358;2024-03-06T09:17:10;12.50;;;7.10;;
5285;SDS011;2665;53.112;7.358;2024-03-06T09:19:38;17.00;;;7.20;;
5285;SDS011;2665;53.112;7.358;2024-03-06T09:22:03;12.47;;;8.90;;
5285;SDS011;2665;53.112;7.358;2024-03-06T09:24:29;21.63;;;9.63;;
5285;SDS011;2665;53.112;7.358;2024-03-06T09:26:55;13.17;;;7.50;;
5285;SDS011;2665;53.112;7.358;2024-03-06T09:29:21;11.50;;;6.53;;
5285;SDS011;2665;53.112;7.358;2024-03-06T09:31:46;14.17;;;6.70;;
5285;SDS011;2665;53.112;7.358;2024-03-06T09:34:15;16.33;;;8.00;;
5285;SDS011;2665;53.112;7.358;2024-03-06T09:36:42;16.07;;;6.93;;
5285;SDS011;2665;53.112;7.358;2024-03-06T09:39:11;17.20;;;6.90;;
5285;SDS011;2665;53.112;7.358;2024-03-06T09:41:37;29.60;;;9.40;;
5285;SDS011;2665;53.112;7.358;2024-03-06T09:44:06;14.23;;;7.90;;
5285;SDS011;2665;53.112;7.358;2024-03-06T09:46:32;26.27;;;8.80;;
5285;SDS011;2665;53.112;7.358;2024-03-06T09:48:59;14.67;;;6.90;;
5285;SDS011;2665;53.112;7.358;2024-03-06T09:51:26;13.00;;;7.87;;
5285;SDS011;2665;53.112;7.358;2024-03-06T09:53:52;13.70;;;6.23;;
5285;SDS011;2665;53.112;7.358;2024-03-06T09:56:19;12.97;;;6.90;;
5285;SDS011;2665;53.112;7.358;2024-03-06T09:58:48;16.00;;;7.37;;
5285;SDS011;2665;53.112;7.358;2024-03-06T10:01:14;16.03;;;7.53;;
5285;SDS011;2665;53.112;7.358;2024-03-06T10:03:40;10.20;;;6.63;;
5285;SDS011;2665;53.112;7.358;2024-03-06T10:06:06;11.60;;;7.60;;
5285;SDS011;2665;53.112;7.358;2024-03-06T10:08:32;13.70;;;7.17;;
5285;SDS011;2665;53.112;7.358;2024-03-06T10:10:58;20.63;;;8.43;;
5285;SDS011;2665;53.112;7.358;2024-03-06T10:13:25;11.17;;;6.57;;
5285;SDS011;2665;53.112;7.358;2024-03-06T10:15:57;20.70;;;8.20;;
5285;SDS011;2665;53.112;7.358;2024-03-06T10:18:26;13.50;;;7.13;;
5285;SDS011;2665;53.112;7.358;2024-03-06T10:20:56;20.00;;;8.30;;
5285;SDS011;2665;53.112;7.358;2024-03-06T10:23:22;14.60;;;7.40;;
5285;SDS011;2665;53.112;7.358;2024-03-06T10:25:48;13.50;;;7.47;;
5285;SDS011;2665;53.112;7.358;2024-03-06T10:28:21;12.87;;;6.90;;
5285;SDS011;2665;53.112;7.358;2024-03-06T10:30:48;20.97;;;7.20;;
5285;SDS011;2665;53.112;7.358;2024-03-06T10:33:15;13.30;;;7.40;;
5285;SDS011;2665;53.112;7.358;2024-03-06T10:35:46;12.83;;;6.47;;
5285;SDS011;2665;53.112;7.358;2024-03-06T10:38:16;12.23;;;6.20;;
5285;SDS011;2665;53.112;7.358;2024-03-06T10:40:45;15.57;;;7.60;;
5285;SDS011;2665;53.112;7.358;2024-03-06T10:43:11;13.77;;;7.43;;
5285;SDS011;2665;53.112;7.358;2024-03-06T10:48:03;13.47;;;7.43;;
5285;SDS011;2665;53.112;7.358;2024-03-06T10:50:31;11.40;;;6.43;;
5285;SDS011;2665;53.112;7.358;2024-03-06T10:52:57;15.30;;;8.30;;
5285;SDS011;2665;53.112;7.358;2024-03-06T10:55:24;14.57;;;8.10;;
5285;SDS011;2665;53.112;7.358;2024-03-06T10:57:53;14.00;;;7.70;;
5285;SDS011;2665;53.112;7.358;2024-03-06T11:00:21;13.87;;;7.83;;
5285;SDS011;2665;53.112;7.358;2024-03-06T11:02:48;17.53;;;11.30;;
5285;SDS011;2665;53.112;7.358;2024-03-06T11:05:16;16.80;;;8.43;;
5285;SDS011;2665;53.112;7.358;2024-03-06T11:07:42;15.90;;;8.43;;
5285;SDS011;2665;53.112;7.358;2024-03-06T11:10:09;15.57;;;7.70;;
5285;SDS011;2665;53.112;7.358;2024-03-06T11:12:41;16.60;;;7.73;;
5285;SDS011;2665;53.112;7.358;2024-03-06T11:15:13;15.70;;;7.40;;
5285;SDS011;2665;53.112;7.358;2024-03-06T11:17:40;14.80;;;8.40;;
5285;SDS011;2665;53.112;7.358;2024-03-06T11:20:13;15.37;;;8.43;;
5285;SDS011;2665;53.112;7.358;2024-03-06T11:28:16;16.47;;;8.23;;
5285;SDS011;2665;53.112;7.358;2024-03-06T11:30:46;11.70;;;6.63;;
5285;SDS011;2665;53.112;7.358;2024-03-06T11:33:14;13.27;;;7.80;;
5285;SDS011;2665;53.112;7.358;2024-03-06T11:35:43;18.83;;;7.97;;
5285;SDS011;2665;53.112;7.358;2024-03-06T11:38:29;15.20;;;7.00;;
5285;SDS011;2665;53.112;7.358;2024-03-06T11:40:54;17.23;;;7.70;;
5285;SDS011;2665;53.112;7.358;2024-03-06T11:43:24;17.00;;;8.13;;
5285;SDS011;2665;53.112;7.358;2024-03-06T11:45:51;18.07;;;8.97;;
5285;SDS011;2665;53.112;7.358;2024-03-06T11:48:17;16.50;;;8.90;;
5285;SDS011;2665;53.112;7.358;2024-03-06T11:50:46;13.90;;;8.10;;
5285;SDS011;2665;53.112;7.358;2024-03-06T11:53:13;16.50;;;9.37;;
5285;SDS011;2665;53.112;7.358;2024-03-06T11:55:39;13.87;;;8.10;;
5285;SDS011;2665;53.112;7.358;2024-03-06T11:58:07;12.70;;;7.23;;
5285;SDS011;2665;53.112;7.358;2024-03-06T12:00:35;14.70;;;7.30;;
5285;SDS011;2665;53.112;7.358;2024-03-06T12:03:01;22.43;;;8.13;;
5285;SDS011;2665;53.112;7.358;2024-03-06T12:05:29;19.40;;;8.67;;
5285;SDS011;2665;53.112;7.358;2024-03-06T12:07:55;22.53;;;10.20;;
5285;SDS011;2665;53.112;7.358;2024-03-06T12:10:21;14.90;;;8.40;;
5285;SDS011;2665;53.112;7.358;2024-03-06T12:12:47;17.00;;;9.67;;
5285;SDS011;2665;53.112;7.358;2024-03-06T12:15:14;15.60;;;9.20;;
5285;SDS011;2665;53.112;7.358;2024-03-06T12:17:44;19.13;;;9.27;;
5285;SDS011;2665;53.112;7.358;2024-03-06T12:20:14;17.93;;;9.80;;
5285;SDS011;2665;53.112;7.358;2024-03-06T12:22:49;16.90;;;9.43;;
5285;SDS011;2665;53.112;7.358;2024-03-06T12:27:48;15.03;;;8.60;;
5285;SDS011;2665;53.112;7.358;2024-03-06T12:30:18;19.40;;;10.10;;
5285;SDS011;2665;53.112;7.358;2024-03-06T12:32:55;16.30;;;9.20;;
5285;SDS011;2665;53.112;7.358;2024-03-06T12:35:28;21.13;;;9.93;;
5285;SDS011;2665;53.112;7.358;2024-03-06T12:37:53;17.10;;;8.33;;
5285;SDS011;2665;53.112;7.358;2024-03-06T12:40:19;20.17;;;9.03;;
5285;SDS011;2665;53.112;7.358;2024-03-06T12:42:45;14.50;;;8.17;;
5285;SDS011;2665;53.112;7.358;2024-03-06T12:45:11;18.90;;;8.90;;
5285;SDS011;2665;53.112;7.358;2024-03-06T12:47:40;13.50;;;8.73;;
5285;SDS011;2665;53.112;7.358;2024-03-06T12:50:07;24.43;;;10.30;;
5285;SDS011;2665;53.112;7.358;2024-03-06T12:52:36;17.60;;;9.37;;
5285;SDS011;2665;53.112;7.358;2024-03-06T12:55:02;19.13;;;8.47;;
5285;SDS011;2665;53.112;7.358;2024-03-06T12:57:30;16.93;;;9.63;;
5285;SDS011;2665;53.112;7.358;2024-03-06T12:59:56;14.17;;;8.50;;
5285;SDS011;2665;53.112;7.358;2024-03-06T13:02:22;14.70;;;10.07;;
5285;SDS011;2665;53.112;7.358;2024-03-06T13:04:48;18.10;;;9.23;;
5285;SDS011;2665;53.112;7.358;2024-03-06T13:07:14;17.70;;;9.10;;
5285;SDS011;2665;53.112;7.358;2024-03-06T13:09:39;17.17;;;8.83;;
5285;SDS011;2665;53.112;7.358;2024-03-06T13:12:05;15.83;;;9.27;;
5285;SDS011;2665;53.112;7.358;2024-03-06T13:14:31;16.33;;;9.17;;
5285;SDS011;2665;53.112;7.358;2024-03-06T13:16:57;17.23;;;9.53;;
5285;SDS011;2665;53.112;7.358;2024-03-06T13:19:23;16.13;;;9.13;;
5285;SDS011;2665;53.112;7.358;2024-03-06T13:21:49;18.30;;;10.23;;
5285;SDS011;2665;53.112;7.358;2024-03-06T13:24:14;22.10;;;9.47;;
5285;SDS011;2665;53.112;7.358;2024-03-06T13:26:40;19.07;;;9.40;;
5285;SDS011;2665;53.112;7.358;2024-03-06T13:29:09;19.83;;;11.80;;
5285;SDS011;2665;53.112;7.358;2024-03-06T13:31:34;20.30;;;10.70;;
5285;SDS011;2665;53.112;7.358;2024-03-06T13:34:01;19.00;;;9.30;;
5285;SDS011;2665;53.112;7.358;2024-03-06T13:36:28;18.63;;;9.97;;
5285;SDS011;2665;53.112;7.358;2024-03-06T13:38:54;17.90;;;11.97;;
5285;SDS011;2665;53.112;7.358;2024-03-06T13:41:19;15.97;;;8.10;;
5285;SDS011;2665;53.112;7.358;2024-03-06T13:43:45;19.30;;;10.40;;
5285;SDS011;2665;53.112;7.358;2024-03-06T13:46:10;19.67;;;9.63;;
5285;SDS011;2665;53.112;7.358;2024-03-06T13:48:37;23.20;;;12.30;;
5285;SDS011;2665;53.112;7.358;2024-03-06T13:51:02;18.13;;;9.17;;
5285;SDS011;2665;53.112;7.358;2024-03-06T13:53:30;19.00;;;10.57;;
5285;SDS011;2665;53.112;7.358;2024-03-06T13:55:56;15.17;;;9.37;;
5285;SDS011;2665;53.112;7.358;2024-03-06T13:58:22;20.93;;;10.13;;
5285;SDS011;2665;53.112;7.358;2024-03-06T14:00:47;16.20;;;9.30;;
5285;SDS011;2665;53.112;7.358;2024-03-06T14:03:13;17.50;;;9.17;;
5285;SDS011;2665;53.112;7.358;2024-03-06T14:05:39;16.40;;;8.97;;
5285;SDS011;2665;53.112;7.358;2024-03-06T14:08:05;20.53;;;10.70;;
5285;SDS011;2665;53.112;7.358;2024-03-06T14:10:31;15.43;;;8.90;;
5285;SDS011;2665;53.112;7.358;2024-03-06T14:13:02;18.10;;;9.60;;
5285;SDS011;2665;53.112;7.358;2024-03-06T14:15:28;19.37;;;8.97;;
5285;SDS011;2665;53.112;7.358;2024-03-06T14:17:53;15.67;;;8.33;;
5285;SDS011;2665;53.112;7.358;2024-03-06T14:20:19;16.23;;;9.17;;
5285;SDS011;2665;53.112;7.358;2024-03-06T14:22:45;17.97;;;9.90;;
5285;SDS011;2665;53.112;7.358;2024-03-06T14:25:11;16.40;;;8.97;;
5285;SDS011;2665;53.112;7.358;2024-03-06T14:27:37;13.67;;;9.40;;
5285;SDS011;2665;53.112;7.358;2024-03-06T14:30:04;14.53;;;9.70;;
5285;SDS011;2665;53.112;7.358;2024-03-06T14:32:32;21.83;;;9.53;;
5285;SDS011;2665;53.112;7.358;2024-03-06T14:34:58;14.80;;;9.27;;
5285;SDS011;2665;53.112;7.358;2024-03-06T14:37:24;17.00;;;9.77;;
5285;SDS011;2665;53.112;7.358;2024-03-06T14:39:49;21.60;;;10.23;;
5285;SDS011;2665;53.112;7.358;2024-03-06T14:42:16;28.40;;;10.60;;
5285;SDS011;2665;53.112;7.358;2024-03-06T14:44:41;21.67;;;11.97;;
5285;SDS011;2665;53.112;7.358;2024-03-06T14:47:08;27.07;;;12.77;;
5285;SDS011;2665;53.112;7.358;2024-03-06T14:49:34;21.90;;;10.83;;
5285;SDS011;2665;53.112;7.358;2024-03-06T14:52:00;22.53;;;11.93;;
5285;SDS011;2665;53.112;7.358;2024-03-06T14:54:27;19.47;;;10.30;;
5285;SDS011;2665;53.112;7.358;2024-03-06T14:56:53;17.63;;;9.27;;
5285;SDS011;2665;53.112;7.358;2024-03-06T14:59:19;33.40;;;11.50;;
5285;SDS011;2665;53.112;7.358;2024-03-06T15:01:46;22.10;;;12.23;;
5285;SDS011;2665;53.112;7.358;2024-03-06T15:04:12;20.10;;;10.27;;
5285;SDS011;2665;53.112;7.358;2024-03-06T15:06:39;16.10;;;9.33;;
5285;SDS011;2665;53.112;7.358;2024-03-06T15:09:05;24.87;;;10.93;;
5285;SDS011;2665;53.112;7.358;2024-03-06T15:11:30;18.87;;;11.80;;
5285;SDS011;2665;53.112;7.358;2024-03-06T15:14:00;23.27;;;11.77;;